sensor_id;sensor_type;location;lat;lon;timestamp;pressure;altitude;pressure_sealevel;temperature;humidity
22862;BME280;11598;50.652;6.172;2022-12-10T00:04:32;95512.09;;;-3.62;100.00
22862;BME280;11598;50.652;6.172;2022-12-10T00:14:32;95512.41;;;-3.46;100.00
22862;BME280;11598;50.652;6.172;2022-12-10T00:24:33;95500.78;;;-3.28;100.00
22862;BME280;11598;50.652;6.172;2022-12-10T00:34:33;95507.94;;;-3.15;100.00
22862;BME280;11598;50.652;6.172;2022-12-10T00:44:34;95513.81;;;-3.13;100.00
22862;BME280;11598;50.652;6.172;2022-12-10T00:54:34;95506.91;;;-3.10;100.00
22862;BME280;11598;50.652;6.172;2022-12-10T01:04:34;95501.00;;;-3.10;100.00
22862;BME280;11598;50.652;6.172;2022-12-10T01:14:35;95522.78;;;-3.03;100.00
22862;BME280;11598;50.652;6.172;2022-12-10T01:24:36;95526.06;;;-3.01;100.00
22862;BME280;11598;50.652;6.172;2022-12-10T01:34:36;95531.91;;;-2.99;100.00
22862;BME280;11598;50.652;6.172;2022-12-10T01:54:45;95547.72;;;-3.14;100.00
22862;BME280;11598;50.652;6.172;2022-12-10T02:15:22;95555.00;;;-3.29;100.00
22862;BME280;11598;50.652;6.172;2022-12-10T02:25:32;95542.78;;;-3.43;100.00
22862;BME280;11598;50.652;6.172;2022-12-10T02:35:37;95549.03;;;-3.53;100.00
22862;BME280;11598;50.652;6.172;2022-12-10T02:45:39;95549.38;;;-3.62;100.00
22862;BME280;11598;50.652;6.172;2022-12-10T03:06:34;95542.19;;;-3.76;100.00
22862;BME280;11598;50.652;6.172;2022-12-10T03:16:40;95546.94;;;-3.92;100.00
22862;BME280;11598;50.652;6.172;2022-12-10T03:26:44;95548.16;;;-4.04;100.00
22862;BME280;11598;50.652;6.172;2022-12-10T03:36:46;95553.22;;;-4.04;100.00
22862;BME280;11598;50.652;6.172;2022-12-10T03:46:47;95555.72;;;-4.02;100.00
22862;BME280;11598;50.652;6.172;2022-12-10T03:56:48;95556.56;;;-4.01;100.00
22862;BME280;11598;50.652;6.172;2022-12-10T04:06:48;95549.94;;;-4.07;100.00
22862;BME280;11598;50.652;6.172;2022-12-10T04:16:49;95568.06;;;-3.91;100.00
22862;BME280;11598;50.652;6.172;2022-12-10T04:26:50;95570.41;;;-3.85;100.00
22862;BME280;11598;50.652;6.172;2022-12-10T04:36:53;95571.94;;;-3.81;100.00
22862;BME280;11598;50.652;6.172;2022-12-10T04:46:53;95575.50;;;-3.85;100.00
22862;BME280;11598;50.652;6.172;2022-12-10T04:56:54;95584.47;;;-3.75;100.00
22862;BME280;11598;50.652;6.172;2022-12-10T05:06:54;95579.97;;;-3.67;100.00
22862;BME280;11598;50.652;6.172;2022-12-10T05:16:55;95582.75;;;-3.74;100.00
22862;BME280;11598;50.652;6.172;2022-12-10T05:26:57;95584.47;;;-3.75;100.00
22862;BME280;11598;50.652;6.172;2022-12-10T05:36:57;95588.56;;;-3.71;100.00
22862;BME280;11598;50.652;6.172;2022-12-10T05:46:57;95590.16;;;-3.68;100.00
22862;BME280;11598;50.652;6.172;2022-12-10T05:56:58;95592.66;;;-3.67;100.00
22862;BME280;11598;50.652;6.172;2022-12-10T06:06:58;95589.28;;;-3.67;100.00
22862;BME280;11598;50.652;6.172;2022-12-10T06:16:58;95591.81;;;-3.67;100.00
22862;BME280;11598;50.652;6.172;2022-12-10T06:26:59;95591.25;;;-3.75;100.00
22862;BME280;11598;50.652;6.172;2022-12-10T06:36:59;95606.66;;;-3.82;100.00
22862;BME280;11598;50.652;6.172;2022-12-10T06:47:00;95621.19;;;-3.87;100.00
22862;BME280;11598;50.652;6.172;2022-12-10T06:57:00;95628.38;;;-3.99;100.00
22862;BME280;11598;50.652;6.172;2022-12-10T07:07:01;95643.63;;;-4.01;100.00
22862;BME280;11598;50.652;6.172;2022-12-10T07:17:02;95652.22;;;-4.05;100.00
22862;BME280;11598;50.652;6.172;2022-12-10T07:27:06;95653.34;;;-4.14;100.00
22862;BME280;11598;50.652;6.172;2022-12-10T07:37:07;95667.81;;;-4.17;100.00
22862;BME280;11598;50.652;6.172;2022-12-10T07:47:07;95660.84;;;-4.11;100.00
22862;BME280;11598;50.652;6.172;2022-12-10T07:57:08;95671.53;;;-4.01;100.00
22862;BME280;11598;50.652;6.172;2022-12-10T08:07:08;95679.94;;;-3.99;100.00
22862;BME280;11598;50.652;6.172;2022-12-10T08:17:09;95688.28;;;-3.95;100.00
22862;BME280;11598;50.652;6.172;2022-12-10T08:27:09;95698.50;;;-3.97;100.00
22862;BME280;11598;50.652;6.172;2022-12-10T08:37:10;95710.06;;;-3.88;100.00
22862;BME280;11598;50.652;6.172;2022-12-10T08:47:10;95717.50;;;-3.82;100.00
22862;BME280;11598;50.652;6.172;2022-12-10T08:57:10;95721.00;;;-3.86;100.00
22862;BME280;11598;50.652;6.172;2022-12-10T09:07:11;95730.19;;;-3.82;100.00
22862;BME280;11598;50.652;6.172;2022-12-10T09:17:12;95726.72;;;-3.79;100.00
22862;BME280;11598;50.652;6.172;2022-12-10T09:27:12;95723.94;;;-3.72;100.00
22862;BME280;11598;50.652;6.172;2022-12-10T09:37:13;95743.03;;;-3.58;100.00
22862;BME280;11598;50.652;6.172;2022-12-10T09:47:13;95745.97;;;-3.44;100.00
22862;BME280;11598;50.652;6.172;2022-12-10T09:57:29;95737.81;;;-3.27;100.00
22862;BME280;11598;50.652;6.172;2022-12-10T10:07:31;95739.88;;;-3.12;100.00
22862;BME280;11598;50.652;6.172;2022-12-10T10:17:36;95741.09;;;-2.97;100.00
22862;BME280;11598;50.652;6.172;2022-12-10T10:27:37;95732.22;;;-2.85;100.00
22862;BME280;11598;50.652;6.172;2022-12-10T10:37:42;95734.19;;;-2.68;100.00
22862;BME280;11598;50.652;6.172;2022-12-10T10:47:42;95730.25;;;-2.52;100.00
22862;BME280;11598;50.652;6.172;2022-12-10T10:57:43;95730.72;;;-2.41;100.00
22862;BME280;11598;50.652;6.172;2022-12-10T11:07:43;95740.38;;;-2.25;100.00
22862;BME280;11598;50.652;6.172;2022-12-10T11:17:50;95731.34;;;-2.10;100.00
22862;BME280;11598;50.652;6.172;2022-12-10T11:28:13;95741.34;;;-2.06;100.00
22862;BME280;11598;50.652;6.172;2022-12-10T11:38:22;95740.28;;;-2.00;100.00
22862;BME280;11598;50.652;6.172;2022-12-10T11:48:55;95738.44;;;-1.95;100.00
22862;BME280;11598;50.652;6.172;2022-12-10T12:19:16;95748.03;;;-1.80;100.00
22862;BME280;11598;50.652;6.172;2022-12-10T12:39:43;95739.09;;;-1.68;100.00
22862;BME280;11598;50.652;6.172;2022-12-10T12:49:47;95738.94;;;-1.63;100.00
22862;BME280;11598;50.652;6.172;2022-12-10T13:00:30;95740.53;;;-1.61;100.00
22862;BME280;11598;50.652;6.172;2022-12-10T13:30:35;95761.59;;;-2.03;100.00
22862;BME280;11598;50.652;6.172;2022-12-10T13:40:41;95772.22;;;-2.15;100.00
22862;BME280;11598;50.652;6.172;2022-12-10T14:11:47;95788.38;;;-2.41;100.00
22862;BME280;11598;50.652;6.172;2022-12-10T14:21:49;95795.91;;;-2.38;100.00
22862;BME280;11598;50.652;6.172;2022-12-10T14:31:50;95801.91;;;-2.39;100.00
22862;BME280;11598;50.652;6.172;2022-12-10T14:41:52;95811.28;;;-2.41;100.00
22862;BME280;11598;50.652;6.172;2022-12-10T14:51:55;95819.69;;;-2.39;100.00
22862;BME280;11598;50.652;6.172;2022-12-10T15:01:57;95825.63;;;-2.39;100.00
22862;BME280;11598;50.652;6.172;2022-12-10T15:11:59;95841.69;;;-2.38;100.00
22862;BME280;11598;50.652;6.172;2022-12-10T15:22:20;95836.88;;;-2.46;100.00
22862;BME280;11598;50.652;6.172;2022-12-10T15:32:28;95828.72;;;-2.56;100.00
22862;BME280;11598;50.652;6.172;2022-12-10T15:52:30;95826.63;;;-2.69;100.00
22862;BME280;11598;50.652;6.172;2022-12-10T16:02:36;95827.69;;;-2.77;100.00
22862;BME280;11598;50.652;6.172;2022-12-10T16:12:38;95833.19;;;-2.89;100.00
22862;BME280;11598;50.652;6.172;2022-12-10T16:22:39;95842.84;;;-3.00;100.00
22862;BME280;11598;50.652;6.172;2022-12-10T16:32:39;95841.69;;;-3.18;100.00
22862;BME280;11598;50.652;6.172;2022-12-10T16:42:40;95852.22;;;-3.30;100.00
22862;BME280;11598;50.652;6.172;2022-12-10T16:52:41;95852.53;;;-3.41;100.00
22862;BME280;11598;50.652;6.172;2022-12-10T17:02:43;95850.22;;;-3.49;100.00
22862;BME280;11598;50.652;6.172;2022-12-10T17:12:43;95851.31;;;-3.57;100.00
22862;BME280;11598;50.652;6.172;2022-12-10T17:22:44;95853.28;;;-3.67;100.00
22862;BME280;11598;50.652;6.172;2022-12-10T17:32:45;95861.56;;;-3.61;100.00
22862;BME280;11598;50.652;6.172;2022-12-10T17:42:45;95856.44;;;-3.59;100.00
22862;BME280;11598;50.652;6.172;2022-12-10T17:52:46;95861.81;;;-3.70;100.00
22862;BME280;11598;50.652;6.172;2022-12-10T18:02:46;95862.00;;;-3.76;100.00
22862;BME280;11598;50.652;6.172;2022-12-10T18:12:47;95873.13;;;-3.82;100.00
22862;BME280;11598;50.652;6.172;2022-12-10T18:22:51;95867.19;;;-3.80;100.00
22862;BME280;11598;50.652;6.172;2022-12-10T18:32:51;95870.78;;;-3.58;100.00
22862;BME280;11598;50.652;6.172;2022-12-10T18:42:52;95873.56;;;-3.36;100.00
22862;BME280;11598;50.652;6.172;2022-12-10T18:52:53;95882.59;;;-3.27;100.00
22862;BME280;11598;50.652;6.172;2022-12-10T19:02:53;95887.06;;;-3.34;100.00
22862;BME280;11598;50.652;6.172;2022-12-10T19:12:53;95886.16;;;-3.33;100.00
22862;BME280;11598;50.652;6.172;2022-12-10T19:22:54;95884.41;;;-3.31;100.00
22862;BME280;11598;50.652;6.172;2022-12-10T19:32:54;95885.22;;;-3.29;100.00
22862;BME280;11598;50.652;6.172;2022-12-10T19:42:56;95872.50;;;-3.29;100.00
22862;BME280;11598;50.652;6.172;2022-12-10T19:52:56;95866.78;;;-3.35;100.00
22862;BME280;11598;50.652;6.172;2022-12-10T20:02:58;95871.16;;;-3.41;100.00
22862;BME280;11598;50.652;6.172;2022-12-10T20:12:58;95868.63;;;-3.41;100.00
22862;BME280;11598;50.652;6.172;2022-12-10T20:22:59;95868.75;;;-3.45;100.00
22862;BME280;11598;50.652;6.172;2022-12-10T20:33:00;95879.16;;;-3.54;100.00
22862;BME280;11598;50.652;6.172;2022-12-10T20:43:00;95879.84;;;-3.79;100.00
22862;BME280;11598;50.652;6.172;2022-12-10T20:53:01;95881.13;;;-3.95;100.00
22862;BME280;11598;50.652;6.172;2022-12-10T21:03:01;95874.28;;;-3.92;100.00
22862;BME280;11598;50.652;6.172;2022-12-10T21:13:02;95874.13;;;-3.86;100.00
22862;BME280;11598;50.652;6.172;2022-12-10T21:23:04;95873.06;;;-3.78;100.00
22862;BME280;11598;50.652;6.172;2022-12-10T21:33:05;95866.88;;;-3.70;100.00
22862;BME280;11598;50.652;6.172;2022-12-10T21:43:05;95878.59;;;-3.64;100.00
22862;BME280;11598;50.652;6.172;2022-12-10T21:53:15;95874.94;;;-3.55;100.00
22862;BME280;11598;50.652;6.172;2022-12-10T22:03:16;95873.97;;;-3.50;100.00
22862;BME280;11598;50.652;6.172;2022-12-10T22:13:17;95866.38;;;-3.51;100.00
22862;BME280;11598;50.652;6.172;2022-12-10T22:23:18;95888.38;;;-3.50;100.00
22862;BME280;11598;50.652;6.172;2022-12-10T22:33:18;95905.03;;;-3.42;100.00
22862;BME280;11598;50.652;6.172;2022-12-10T22:43:18;95902.28;;;-3.34;100.00
22862;BME280;11598;50.652;6.172;2022-12-10T22:53:19;95905.53;;;-3.29;100.00
22862;BME280;11598;50.652;6.172;2022-12-10T23:03:19;95885.94;;;-3.25;100.00
22862;BME280;11598;50.652;6.172;2022-12-10T23:13:20;95886.59;;;-3.19;100.00
22862;BME280;11598;50.652;6.172;2022-12-10T23:23:20;95875.41;;;-3.13;100.00
22862;BME280;11598;50.652;6.172;2022-12-10T23:33:21;95872.72;;;-3.08;100.00
22862;BME280;11598;50.652;6.172;2022-12-10T23:43:21;95880.19;;;-3.02;100.00
22862;BME280;11598;50.652;6.172;2022-12-10T23:53:22;95872.53;;;-3.01;100.00
